Time;durP1;ratioP1;P1;durP2;ratioP2;P2;SDS_P1;SDS_P2;PMS_P1;PMS_P2;Temp;Humidity;BMP_temperature;BMP_pressure;BME280_temperature;BME280_humidity;BME280_pressure;Samples;Min_cycle;Max_cycle;Signal;HPM_P1;HPM_P2
2021/07/03 00:02:18;;;;;;;22.77;15.10;;;13.80;99.90;;;;;;4972873;28;20034;-75
2021/07/03 00:04:44;;;;;;;23.05;14.43;;;13.80;99.90;;;;;;4972514;28;20034;-76
2021/07/03 00:07:10;;;;;;;25.52;15.25;;;13.70;99.90;;;;;;4972764;28;20088;-75
2021/07/03 00:09:37;;;;;;;21.42;14.13;;;13.70;99.90;;;;;;4971030;28;20492;-75
2021/07/03 00:12:06;;;;;;;23.70;15.50;;;13.70;99.90;;;;;;5039389;28;20026;-75
2021/07/03 00:14:33;;;;;;;26.92;15.88;;;13.60;99.90;;;;;;4972152;28;20134;-75
2021/07/03 00:16:59;;;;;;;21.90;15.32;;;13.60;99.90;;;;;;4971946;28;20041;-75
2021/07/03 00:19:24;;;;;;;25.83;16.27;;;13.60;99.90;;;;;;5038720;28;20113;-75
2021/07/03 00:21:50;;;;;;;24.65;16.67;;;13.50;99.90;;;;;;5055568;28;20023;-74
2021/07/03 00:24:16;;;;;;;22.10;15.95;;;13.60;99.90;;;;;;4972219;28;20534;-74
2021/07/03 00:26:43;;;;;;;23.77;15.07;;;13.60;99.90;;;;;;5055873;28;20043;-75
2021/07/03 00:29:08;;;;;;;24.75;15.82;;;13.50;99.90;;;;;;4972097;28;20485;-75
2021/07/03 00:31:34;;;;;;;25.92;16.00;;;13.50;99.90;;;;;;4971740;28;20058;-73
2021/07/03 00:34:00;;;;;;;20.13;14.30;;;13.50;99.90;;;;;;4970310;28;20058;-75
2021/07/03 00:36:26;;;;;;;19.15;13.88;;;13.40;99.90;;;;;;4970770;28;20035;-75
2021/07/03 00:38:51;;;;;;;17.80;13.82;;;13.40;99.90;;;;;;4971809;28;20468;-74
2021/07/03 00:41:17;;;;;;;21.33;15.98;;;13.40;99.90;;;;;;4971326;28;20117;-75
2021/07/03 00:43:43;;;;;;;20.90;14.65;;;13.40;99.90;;;;;;5038779;28;20038;-75
2021/07/03 00:46:09;;;;;;;20.88;14.52;;;13.30;99.90;;;;;;4971710;28;20481;-75
2021/07/03 00:48:34;;;;;;;21.70;14.55;;;13.30;99.90;;;;;;4971915;28;20366;-74
2021/07/03 00:51:00;;;;;;;21.08;14.18;;;13.30;99.90;;;;;;4971026;28;20034;-74
2021/07/03 00:53:26;;;;;;;20.15;14.48;;;13.40;99.90;;;;;;4971860;28;20019;-75
2021/07/03 00:55:53;;;;;;;20.88;13.50;;;13.40;99.90;;;;;;4971846;28;20102;-74
2021/07/03 00:58:19;;;;;;;18.48;12.63;;;13.20;99.90;;;;;;4971678;28;20038;-75
2021/07/03 01:00:45;;;;;;;21.67;13.00;;;13.10;99.90;;;;;;4970541;28;20023;-75
2021/07/03 01:03:11;;;;;;;21.42;12.70;;;13.00;99.90;;;;;;5038492;28;20030;-74
2021/07/03 01:05:36;;;;;;;16.27;12.80;;;13.00;99.90;;;;;;4971609;28;20027;-75
2021/07/03 01:08:02;;;;;;;19.55;13.00;;;13.00;99.90;;;;;;4971474;28;20027;-75
2021/07/03 01:10:30;;;;;;;20.70;13.82;;;13.00;99.90;;;;;;4970887;28;20434;-74
2021/07/03 01:12:57;;;;;;;20.02;14.60;;;13.00;99.90;;;;;;5037871;28;20023;-74
2021/07/03 01:15:22;;;;;;;25.38;14.65;;;13.00;99.90;;;;;;4971332;28;20023;-75
2021/07/03 01:17:49;;;;;;;20.35;14.93;;;13.00;99.90;;;;;;4971486;28;20058;-74
2021/07/03 01:20:16;;;;;;;22.33;14.85;;;13.00;99.90;;;;;;5037634;28;20027;-74
2021/07/03 01:22:44;;;;;;;22.10;13.98;;;13.00;99.90;;;;;;4970701;28;20388;-75
2021/07/03 01:25:11;;;;;;;20.30;14.50;;;12.80;99.90;;;;;;4971374;28;20042;-74
2021/07/03 01:27:38;;;;;;;21.27;14.70;;;12.80;99.90;;;;;;4971411;28;20031;-74
2021/07/03 01:30:06;;;;;;;20.92;14.45;;;12.90;99.90;;;;;;4970623;28;20072;-74
2021/07/03 01:32:31;;;;;;;23.75;13.55;;;12.90;99.90;;;;;;4971424;28;20119;-74
2021/07/03 01:34:57;;;;;;;23.13;15.10;;;12.80;99.90;;;;;;4971175;28;20101;-74
2021/07/03 01:37:23;;;;;;;19.98;15.10;;;12.80;99.90;;;;;;4970868;28;20451;-73
2021/07/03 01:39:50;;;;;;;20.73;14.30;;;12.80;99.90;;;;;;4970671;28;20030;-75
2021/07/03 01:42:15;;;;;;;19.50;14.35;;;12.80;99.90;;;;;;4971063;28;20031;-74
2021/07/03 01:44:42;;;;;;;27.80;15.98;;;12.80;99.90;;;;;;4971214;28;20030;-74
2021/07/03 01:47:07;;;;;;;22.83;14.80;;;12.80;99.90;;;;;;4971160;28;20051;-74
2021/07/03 01:49:42;;;;;;;24.40;15.55;;;12.80;99.90;;;;;;4968988;28;20086;-74
2021/07/03 01:52:07;;;;;;;24.15;15.35;;;12.80;99.90;;;;;;5037288;28;20587;-74
2021/07/03 01:54:34;;;;;;;20.55;13.95;;;12.70;99.90;;;;;;5054093;28;20043;-73
2021/07/03 01:57:00;;;;;;;24.25;15.80;;;12.70;99.90;;;;;;5037243;28;20131;-74
2021/07/03 01:59:28;;;;;;;25.65;14.75;;;12.70;99.90;;;;;;4970310;28;20050;-74
2021/07/03 02:01:55;;;;;;;27.35;18.05;;;12.60;99.90;;;;;;4970674;28;20019;-74
2021/07/03 02:04:21;;;;;;;26.00;16.42;;;12.60;99.90;;;;;;4970861;28;20639;-74
2021/07/03 02:06:47;;;;;;;30.58;15.57;;;12.60;99.90;;;;;;5038505;28;20127;-74
2021/07/03 02:09:14;;;;;;;27.13;17.17;;;12.50;99.90;;;;;;4970493;28;20023;-74
2021/07/03 02:11:40;;;;;;;26.92;17.02;;;12.50;99.90;;;;;;4969798;28;20485;-74
2021/07/03 02:14:06;;;;;;;25.15;14.95;;;12.50;99.90;;;;;;4970668;28;20481;-74
2021/07/03 02:16:32;;;;;;;25.02;15.55;;;12.40;99.90;;;;;;5037000;28;20050;-74
2021/07/03 02:18:58;;;;;;;18.77;14.07;;;12.40;99.90;;;;;;4970430;28;20477;-74
2021/07/03 02:21:24;;;;;;;24.35;15.05;;;12.40;99.90;;;;;;4968590;28;20023;-74
2021/07/03 02:23:49;;;;;;;26.15;15.82;;;12.30;99.90;;;;;;4970262;28;20041;-74
2021/07/03 02:26:15;;;;;;;24.55;16.05;;;12.40;99.90;;;;;;4969847;28;20345;-74
2021/07/03 02:28:41;;;;;;;27.30;16.00;;;12.40;99.90;;;;;;4969953;28;20105;-74
2021/07/03 02:31:06;;;;;;;25.85;16.13;;;12.40;99.90;;;;;;4975417;28;20023;-73
2021/07/03 02:33:33;;;;;;;23.58;14.80;;;12.30;99.90;;;;;;4988298;28;20042;-74
2021/07/03 02:35:58;;;;;;;26.40;17.15;;;12.30;99.90;;;;;;5036109;28;20027;-74
2021/07/03 02:38:24;;;;;;;30.42;17.55;;;12.30;99.90;;;;;;5035376;28;20031;-74
2021/07/03 02:40:50;;;;;;;20.95;14.68;;;12.20;99.90;;;;;;4968600;28;20037;-74
2021/07/03 02:43:16;;;;;;;26.05;17.35;;;12.20;99.90;;;;;;5035686;28;20027;-75
2021/07/03 02:45:42;;;;;;;26.27;16.95;;;12.20;99.90;;;;;;4969218;28;20034;-74
2021/07/03 02:48:07;;;;;;;27.00;17.80;;;12.10;99.90;;;;;;4969461;28;20046;-74
2021/07/03 02:50:33;;;;;;;24.67;16.83;;;12.10;99.90;;;;;;4968634;28;20384;-75
2021/07/03 02:52:59;;;;;;;24.00;15.88;;;12.10;99.90;;;;;;5035821;28;20031;-74
2021/07/03 02:55:25;;;;;;;27.58;16.08;;;12.00;99.90;;;;;;4969316;28;20423;-77
2021/07/03 02:57:51;;;;;;;28.80;17.13;;;12.00;99.90;;;;;;5053769;28;20426;-77
2021/07/03 03:00:17;;;;;;;28.83;16.42;;;12.00;99.90;;;;;;4970999;28;20098;-77
2021/07/03 03:02:43;;;;;;;23.92;15.13;;;12.00;99.90;;;;;;4973902;28;20480;-77
2021/07/03 03:05:11;;;;;;;20.70;15.00;;;11.90;99.90;;;;;;4974012;28;20050;-77
2021/07/03 03:07:38;;;;;;;24.83;16.55;;;11.80;99.90;;;;;;4973997;28;20503;-78
2021/07/03 03:10:06;;;;;;;31.33;16.75;;;11.90;99.90;;;;;;4974114;28;20541;-76
2021/07/03 03:12:32;;;;;;;27.77;18.50;;;11.90;99.90;;;;;;4976296;28;20116;-79
2021/07/03 03:14:58;;;;;;;28.85;19.15;;;11.90;99.90;;;;;;4974438;28;20026;-77
2021/07/03 03:17:24;;;;;;;34.30;18.45;;;11.90;99.90;;;;;;4975353;28;20027;-77
2021/07/03 03:19:49;;;;;;;30.23;17.25;;;12.00;99.90;;;;;;5041496;28;20385;-77
2021/07/03 03:22:15;;;;;;;25.98;15.98;;;11.90;99.90;;;;;;4970086;28;20440;-78
2021/07/03 03:24:41;;;;;;;21.90;15.00;;;11.90;99.90;;;;;;4915149;28;1120254;-78
2021/07/03 03:27:07;;;;;;;25.63;16.33;;;11.90;99.90;;;;;;4954870;28;20040;-76
2021/07/03 03:29:33;;;;;;;25.75;17.75;;;11.90;99.90;;;;;;4953768;28;20027;-76
2021/07/03 03:31:58;;;;;;;28.35;18.65;;;12.00;99.90;;;;;;4953937;28;20094;-77
2021/07/03 03:34:24;;;;;;;28.05;18.33;;;12.00;99.90;;;;;;4952352;28;20032;-75
2021/07/03 03:36:50;;;;;;;21.88;16.67;;;12.00;99.90;;;;;;4965570;28;20070;-75
2021/07/03 03:39:16;;;;;;;23.33;16.15;;;12.00;99.90;;;;;;4953058;28;20054;-75
2021/07/03 03:41:41;;;;;;;24.75;17.08;;;12.00;99.90;;;;;;4952954;28;20027;-75
2021/07/03 03:44:07;;;;;;;28.42;18.08;;;12.00;99.90;;;;;;4953468;29;20058;-75
2021/07/03 03:46:33;;;;;;;29.90;17.77;;;12.00;99.90;;;;;;5036076;28;20066;-75
2021/07/03 03:48:59;;;;;;;27.65;17.52;;;12.00;99.90;;;;;;4953239;28;20477;-75
2021/07/03 03:51:24;;;;;;;28.45;17.13;;;12.00;99.90;;;;;;4951086;28;20051;-75
2021/07/03 03:53:50;;;;;;;24.15;17.00;;;11.90;99.90;;;;;;4975862;28;20440;-74
2021/07/03 03:56:15;;;;;;;26.30;15.52;;;12.00;99.90;;;;;;4989740;28;20079;-73
2021/07/03 03:58:41;;;;;;;22.73;15.60;;;12.10;99.90;;;;;;4991726;28;20035;-74
2021/07/03 04:01:07;;;;;;;21.42;15.43;;;12.20;99.90;;;;;;4991183;28;20030;-75
2021/07/03 04:03:33;;;;;;;24.73;15.23;;;12.20;99.90;;;;;;5075977;28;20054;-75
2021/07/03 04:05:58;;;;;;;24.10;14.90;;;12.10;99.90;;;;;;5058650;28;20022;-75
2021/07/03 04:08:24;;;;;;;21.20;14.40;;;12.30;99.90;;;;;;4991052;28;20034;-75
2021/07/03 04:10:49;;;;;;;17.02;12.57;;;12.30;99.90;;;;;;4990849;28;20018;-75
2021/07/03 04:13:15;;;;;;;17.20;12.85;;;12.50;99.90;;;;;;4990261;28;20034;-75
2021/07/03 04:15:41;;;;;;;18.25;12.98;;;12.30;99.90;;;;;;4991436;28;20101;-74
2021/07/03 04:18:07;;;;;;;17.98;13.02;;;12.30;99.90;;;;;;4990873;28;20027;-74
2021/07/03 04:20:32;;;;;;;21.55;14.57;;;12.30;99.90;;;;;;4990766;28;20023;-77
2021/07/03 04:22:58;;;;;;;19.05;13.73;;;12.30;99.90;;;;;;4981725;28;20022;-76
2021/07/03 04:25:25;;;;;;;24.38;14.68;;;12.30;99.90;;;;;;4972043;28;20050;-75
2021/07/03 04:27:51;;;;;;;25.02;15.02;;;12.30;99.90;;;;;;4971996;28;20508;-74
2021/07/03 04:30:17;;;;;;;28.45;16.10;;;12.20;99.90;;;;;;4979048;28;20038;-77
2021/07/03 04:32:44;;;;;;;22.25;14.85;;;12.20;99.90;;;;;;4991898;28;20030;-76
2021/07/03 04:35:11;;;;;;;20.23;14.70;;;12.20;99.90;;;;;;4991470;28;20503;-76
2021/07/03 04:37:37;;;;;;;22.35;14.45;;;12.20;99.90;;;;;;5058747;28;20030;-76
2021/07/03 04:40:05;;;;;;;23.25;14.50;;;12.20;99.90;;;;;;4989955;28;20470;-76
2021/07/03 04:42:31;;;;;;;21.05;14.13;;;12.30;99.90;;;;;;4991513;28;20019;-77
2021/07/03 04:44:57;;;;;;;20.13;14.75;;;12.30;99.90;;;;;;4990704;28;20027;-77
2021/07/03 04:47:23;;;;;;;21.30;15.48;;;12.30;99.90;;;;;;4992300;28;20048;-74
2021/07/03 04:49:48;;;;;;;23.80;15.02;;;12.40;99.90;;;;;;4990410;28;20019;-76
2021/07/03 04:52:14;;;;;;;21.30;13.95;;;12.40;99.90;;;;;;4988410;28;20031;-76
2021/07/03 04:54:40;;;;;;;20.23;14.23;;;12.60;99.90;;;;;;4972088;28;20038;-75
2021/07/03 04:57:11;;;;;;;19.42;13.75;;;12.70;99.90;;;;;;4971942;28;20102;-75
2021/07/03 04:59:41;;;;;;;19.02;14.10;;;12.70;99.90;;;;;;4972083;28;20023;-76
2021/07/03 05:02:09;;;;;;;18.58;14.00;;;12.70;99.90;;;;;;4972071;28;20034;-76
2021/07/03 05:04:36;;;;;;;25.60;16.48;;;12.70;99.90;;;;;;4971654;28;20449;-77
2021/07/03 05:07:02;;;;;;;23.38;16.77;;;12.60;99.90;;;;;;4971803;28;20027;-76
2021/07/03 05:09:28;;;;;;;24.65;17.30;;;12.70;99.90;;;;;;4971414;28;20370;-75
2021/07/03 05:11:55;;;;;;;23.40;15.63;;;12.70;99.90;;;;;;4971511;28;20106;-76
2021/07/03 05:14:20;;;;;;;28.42;17.25;;;12.80;99.90;;;;;;4971682;28;20038;-77
2021/07/03 05:16:46;;;;;;;23.85;16.85;;;12.80;99.90;;;;;;5038112;28;20027;-74
2021/07/03 05:19:12;;;;;;;21.75;15.75;;;12.90;99.90;;;;;;4971627;28;20684;-75
2021/07/03 05:21:38;;;;;;;22.13;15.15;;;13.00;99.90;;;;;;4970781;28;20026;-77
2021/07/03 05:24:03;;;;;;;21.67;16.58;;;13.00;99.90;;;;;;4970329;28;20087;-76
2021/07/03 05:26:29;;;;;;;24.20;15.93;;;13.10;99.90;;;;;;4971512;28;20026;-76
2021/07/03 05:28:55;;;;;;;22.30;16.67;;;13.10;99.90;;;;;;4975011;28;20038;-78
2021/07/03 05:31:21;;;;;;;25.40;17.08;;;13.20;99.90;;;;;;5055647;28;20434;-78
2021/07/03 05:33:46;;;;;;;21.27;15.65;;;13.30;99.90;;;;;;4993956;28;20049;-76
2021/07/03 05:36:12;;;;;;;17.92;14.85;;;13.20;99.90;;;;;;4992100;28;20475;-74
2021/07/03 05:38:41;;;;;;;18.08;14.02;;;13.10;99.90;;;;;;4992155;28;20468;-77
2021/07/03 05:41:09;;;;;;;18.00;13.10;;;13.10;99.90;;;;;;4991696;28;20026;-75
2021/07/03 05:43:35;;;;;;;17.02;13.82;;;13.40;99.90;;;;;;5058518;28;20112;-75
2021/07/03 05:46:02;;;;;;;23.00;14.18;;;13.50;99.90;;;;;;5076682;28;20026;-77
2021/07/03 05:48:28;;;;;;;18.25;13.95;;;13.70;99.90;;;;;;4990451;28;20067;-76
2021/07/03 05:50:54;;;;;;;20.38;14.95;;;13.90;99.90;;;;;;5040775;28;20447;-77
2021/07/03 05:53:19;;;;;;;21.90;14.25;;;14.10;99.90;;;;;;4965907;28;20441;-77
2021/07/03 05:55:45;;;;;;;18.20;13.13;;;14.20;99.90;;;;;;4972697;28;20072;-77
2021/07/03 05:58:11;;;;;;;20.55;13.65;;;14.30;99.90;;;;;;4972070;28;20076;-77
2021/07/03 06:00:36;;;;;;;18.80;14.20;;;14.40;99.90;;;;;;4957073;28;20485;-74
2021/07/03 06:03:02;;;;;;;18.08;13.00;;;14.40;99.90;;;;;;4967422;28;20048;-76
2021/07/03 06:05:28;;;;;;;20.25;12.65;;;14.50;99.90;;;;;;4957468;28;20161;-77
2021/07/03 06:07:53;;;;;;;15.02;10.93;;;14.60;99.90;;;;;;5026061;28;20035;-79
2021/07/03 06:10:19;;;;;;;20.10;11.63;;;14.50;99.90;;;;;;5083144;28;20127;-76
2021/07/03 06:12:45;;;;;;;14.90;11.32;;;14.50;99.90;;;;;;5024476;28;20057;-79
2021/07/03 06:15:12;;;;;;;19.75;12.18;;;14.50;99.90;;;;;;4973393;28;20027;-74
2021/07/03 06:17:38;;;;;;;15.65;9.55;;;14.70;99.90;;;;;;4971145;28;20031;-74
2021/07/03 06:20:05;;;;;;;12.50;10.60;;;15.00;99.90;;;;;;4971168;28;20045;-74
2021/07/03 06:22:31;;;;;;;14.10;10.68;;;15.20;99.90;;;;;;5046819;28;20022;-78
2021/07/03 06:24:57;;;;;;;17.10;12.10;;;15.20;99.90;;;;;;4980745;28;20195;-77
2021/07/03 06:27:23;;;;;;;15.50;10.52;;;15.20;99.90;;;;;;4982291;28;20045;-78
2021/07/03 06:29:48;;;;;;;12.55;9.60;;;15.10;99.90;;;;;;4971639;28;20031;-78
2021/07/03 06:32:14;;;;;;;13.38;10.27;;;15.20;99.90;;;;;;4970981;28;20747;-76
2021/07/03 06:34:40;;;;;;;13.30;10.07;;;15.30;99.90;;;;;;4969093;28;20073;-77
2021/07/03 06:37:05;;;;;;;13.23;10.38;;;15.30;99.90;;;;;;4970368;28;20113;-76
2021/07/03 06:39:32;;;;;;;17.42;9.73;;;15.20;99.90;;;;;;4970483;28;20027;-76
2021/07/03 06:41:58;;;;;;;14.65;10.18;;;15.40;99.90;;;;;;4967377;28;20027;-77
2021/07/03 06:44:23;;;;;;;14.77;9.77;;;15.60;99.90;;;;;;4953216;28;20560;-78
2021/07/03 06:46:49;;;;;;;15.57;10.40;;;15.70;99.90;;;;;;4953645;28;20030;-77
2021/07/03 06:49:16;;;;;;;13.57;9.50;;;15.70;99.90;;;;;;4960165;28;20046;-76
2021/07/03 06:51:42;;;;;;;12.38;9.82;;;15.70;99.90;;;;;;4962147;28;20042;-77
2021/07/03 06:54:08;;;;;;;12.75;9.95;;;15.80;99.90;;;;;;4962864;28;20015;-76
2021/07/03 06:56:33;;;;;;;14.75;10.07;;;15.90;99.90;;;;;;4961732;28;20028;-76
2021/07/03 06:58:59;;;;;;;12.70;8.75;;;16.00;99.90;;;;;;4960846;28;20033;-77
2021/07/03 07:01:25;;;;;;;12.52;9.55;;;16.20;99.90;;;;;;4962155;28;20039;-75
2021/07/03 07:03:50;;;;;;;12.65;9.45;;;16.20;99.90;;;;;;4962445;28;20019;-77
2021/07/03 07:06:16;;;;;;;13.35;9.55;;;16.30;99.90;;;;;;4961890;28;20031;-79
2021/07/03 07:08:42;;;;;;;13.60;9.23;;;16.30;99.90;;;;;;4959074;29;20085;-78
2021/07/03 07:11:07;;;;;;;13.35;9.32;;;16.30;99.90;;;;;;4957307;29;20039;-75
2021/07/03 07:13:33;;;;;;;9.90;8.65;;;16.50;99.90;;;;;;4957206;28;20084;-74
2021/07/03 07:15:59;;;;;;;10.68;8.63;;;16.80;99.90;;;;;;4951741;28;20042;-73
2021/07/03 07:18:25;;;;;;;9.57;8.57;;;17.00;99.90;;;;;;4943492;28;20149;-74
2021/07/03 07:20:51;;;;;;;12.30;8.90;;;17.10;99.90;;;;;;4954810;29;20027;-74
2021/07/03 07:23:16;;;;;;;10.10;8.98;;;17.20;99.90;;;;;;4957391;28;20030;-75
2021/07/03 07:25:42;;;;;;;13.05;9.27;;;17.20;99.90;;;;;;4969979;28;20489;-75
2021/07/03 07:28:08;;;;;;;12.80;9.63;;;17.20;99.90;;;;;;4977950;28;20496;-75
2021/07/03 07:30:34;;;;;;;9.18;8.25;;;17.40;99.90;;;;;;4997245;28;20122;-77
2021/07/03 07:33:00;;;;;;;10.57;8.25;;;17.60;99.90;;;;;;4994201;28;20054;-76
2021/07/03 07:35:26;;;;;;;11.23;8.77;;;17.80;99.90;;;;;;4993418;28;20037;-76
2021/07/03 07:37:52;;;;;;;10.43;8.88;;;17.80;99.90;;;;;;5057620;28;20077;-75
2021/07/03 07:40:19;;;;;;;8.68;7.45;;;17.90;99.90;;;;;;5077490;28;20093;-74
2021/07/03 07:42:45;;;;;;;9.15;8.25;;;18.10;99.90;;;;;;5076980;28;20021;-77
2021/07/03 07:45:12;;;;;;;10.02;8.55;;;18.40;99.90;;;;;;5074248;28;20032;-75
2021/07/03 07:47:38;;;;;;;9.10;7.53;;;18.70;99.90;;;;;;5078336;28;20036;-74
2021/07/03 07:50:05;;;;;;;9.40;7.45;;;18.90;99.90;;;;;;4993062;28;20035;-73
2021/07/03 07:52:32;;;;;;;8.65;7.75;;;19.00;99.90;;;;;;4976866;28;20038;-77
2021/07/03 07:54:57;;;;;;;8.30;6.93;;;19.30;99.90;;;;;;4965599;28;20178;-75
2021/07/03 07:57:23;;;;;;;8.85;6.95;;;19.60;99.90;;;;;;4958379;29;20050;-75
2021/07/03 07:59:49;;;;;;;9.63;7.30;;;19.90;99.90;;;;;;4966634;28;20023;-77
2021/07/03 08:02:15;;;;;;;9.05;7.20;;;20.10;99.90;;;;;;4978583;28;20031;-75
2021/07/03 08:04:41;;;;;;;11.68;7.50;;;20.30;99.90;;;;;;4976933;28;20393;-74
2021/07/03 08:07:07;;;;;;;7.25;6.53;;;20.50;99.90;;;;;;4975706;28;20023;-76
2021/07/03 08:09:33;;;;;;;7.63;6.47;;;20.60;99.90;;;;;;5060330;28;20037;-75
2021/07/03 08:11:59;;;;;;;12.20;6.90;;;20.80;99.90;;;;;;4974611;28;20030;-75
2021/07/03 08:14:24;;;;;;;8.52;7.22;;;21.10;99.90;;;;;;5040823;28;20027;-75
2021/07/03 08:16:50;;;;;;;8.30;6.82;;;21.40;99.90;;;;;;4973870;28;20027;-74
2021/07/03 08:19:16;;;;;;;9.05;6.55;;;21.70;99.90;;;;;;4972169;28;20166;-74
2021/07/03 08:21:42;;;;;;;9.00;6.10;;;21.90;99.90;;;;;;4971604;28;20435;-75
2021/07/03 08:24:08;;;;;;;7.32;6.00;;;21.90;99.90;;;;;;4972293;28;20046;-76
2021/07/03 08:26:34;;;;;;;7.50;5.90;;;22.20;99.90;;;;;;4971674;28;20061;-75
2021/07/03 08:29:00;;;;;;;7.28;5.88;;;22.20;99.90;;;;;;4971890;28;20038;-76
2021/07/03 08:31:26;;;;;;;6.45;5.85;;;22.00;99.90;;;;;;4969053;28;20030;-74
2021/07/03 08:33:51;;;;;;;7.65;5.85;;;22.20;99.90;;;;;;4959866;28;20034;-74
2021/07/03 08:36:17;;;;;;;8.13;5.72;;;22.50;99.90;;;;;;4960787;28;20019;-74
2021/07/03 08:38:43;;;;;;;8.95;5.25;;;22.70;99.90;;;;;;4962047;28;20035;-74
2021/07/03 08:41:11;;;;;;;8.10;5.25;;;23.10;99.90;;;;;;4963221;28;20030;-74
2021/07/03 08:43:49;;;;;;;7.80;5.57;;;23.60;99.90;;;;;;4961686;28;20026;-75
2021/07/03 08:46:19;;;;;;;5.50;5.00;;;24.40;99.90;;;;;;4964985;28;20612;-74
2021/07/03 08:48:50;;;;;;;6.32;5.03;;;24.90;99.90;;;;;;4960490;28;20071;-76
2021/07/03 08:51:15;;;;;;;5.53;5.03;;;24.60;99.90;;;;;;4959311;28;20102;-75
2021/07/03 08:53:41;;;;;;;5.35;4.82;;;24.40;99.90;;;;;;5027225;28;20160;-75
2021/07/03 08:56:07;;;;;;;6.80;4.75;;;23.70;99.90;;;;;;4964577;28;20022;-77
2021/07/03 08:58:32;;;;;;;5.00;4.32;;;24.40;99.90;;;;;;5029123;28;20031;-78
2021/07/03 09:00:58;;;;;;;6.40;4.32;;;24.50;99.90;;;;;;5038096;28;20161;-74
2021/07/03 09:03:26;;;;;;;4.20;3.90;;;24.60;99.90;;;;;;4971608;28;20026;-76
2021/07/03 09:05:57;;;;;;;6.35;4.35;;;26.00;98.40;;;;;;4972044;28;20034;-77
2021/07/03 09:08:27;;;;;;;5.70;4.20;;;26.50;96.90;;;;;;4975442;28;20165;-78
2021/07/03 09:11:07;;;;;;;4.30;3.80;;;26.40;95.50;;;;;;5037031;28;20521;-75
2021/07/03 09:13:35;;;;;;;12.68;4.85;;;26.90;95.60;;;;;;4972015;28;20041;-74
2021/07/03 09:16:01;;;;;;;8.90;4.72;;;27.40;94.30;;;;;;4968042;28;20105;-75
2021/07/03 09:18:28;;;;;;;3.78;3.55;;;28.20;93.90;;;;;;4960819;28;20492;-75
2021/07/03 09:20:59;;;;;;;3.65;3.35;;;27.80;92.90;;;;;;4958294;28;20023;-75
2021/07/03 09:23:26;;;;;;;3.45;3.15;;;29.10;89.80;;;;;;4965856;28;20090;-75
2021/07/03 09:28:23;;;;;;;5.70;3.47;;;28.50;80.70;;;;;;5016742;28;20042;-74
2021/07/03 09:30:51;;;;;;;4.45;3.40;;;28.10;82.50;;;;;;5000486;28;20093;-73
2021/07/03 09:33:25;;;;;;;3.67;3.30;;;28.10;83.00;;;;;;5016400;28;20491;-75
2021/07/03 09:36:05;;;;;;;3.70;3.40;;;28.10;85.20;;;;;;5017541;28;20025;-76
2021/07/03 09:39:00;;;;;;;5.22;3.58;;;28.70;82.00;;;;;;4997376;28;20484;-75
2021/07/03 09:41:38;;;;;;;3.92;3.55;;;29.40;81.80;;;;;;4998372;28;20034;-73
2021/07/03 09:44:07;;;;;;;7.70;3.40;;;29.90;75.70;;;;;;4997223;28;20165;-74
2021/07/03 09:46:35;;;;;;;3.47;3.28;;;29.80;76.30;;;;;;4998912;28;20030;-73
2021/07/03 09:49:06;;;;;;;3.85;3.55;;;31.20;72.80;;;;;;4997619;28;20026;-75
2021/07/03 09:51:33;;;;;;;3.22;3.03;;;31.50;71.30;;;;;;4997869;28;20026;-74
2021/07/03 09:54:00;;;;;;;5.10;3.50;;;30.40;73.70;;;;;;4999370;28;20063;-75
2021/07/03 09:56:27;;;;;;;4.00;3.00;;;31.00;74.50;;;;;;4999061;28;20080;-75
2021/07/03 09:58:53;;;;;;;3.28;3.03;;;31.10;72.00;;;;;;4998688;28;20026;-75
2021/07/03 10:01:19;;;;;;;9.35;3.47;;;31.30;71.50;;;;;;4996588;28;20026;-73
2021/07/03 10:03:45;;;;;;;3.60;3.10;;;31.20;67.50;;;;;;4990763;28;20081;-74
2021/07/03 10:06:14;;;;;;;3.80;3.47;;;30.10;68.40;;;;;;4990601;28;20028;-75
2021/07/03 10:08:43;;;;;;;3.35;3.15;;;29.20;69.60;;;;;;4990850;28;20035;-72
2021/07/03 10:11:12;;;;;;;3.42;3.20;;;29.00;70.90;;;;;;4971850;28;20049;-72
2021/07/03 10:13:40;;;;;;;3.90;3.60;;;28.00;71.20;;;;;;4989054;28;20022;-71
2021/07/03 10:16:07;;;;;;;3.90;3.40;;;27.80;73.30;;;;;;4989483;28;20027;-72
2021/07/03 10:18:34;;;;;;;3.85;3.55;;;28.00;73.70;;;;;;4989422;28;20033;-72
2021/07/03 10:21:11;;;;;;;4.13;3.75;;;27.40;72.50;;;;;;4988874;28;20025;-73
2021/07/03 10:23:42;;;;;;;4.40;3.70;;;27.80;77.40;;;;;;4989489;28;20022;-74
2021/07/03 10:26:08;;;;;;;3.45;3.00;;;28.00;73.40;;;;;;4991321;28;20131;-73
2021/07/03 10:28:36;;;;;;;5.75;3.70;;;28.10;73.10;;;;;;4992941;28;20033;-72
2021/07/03 10:31:14;;;;;;;3.63;3.00;;;28.60;76.50;;;;;;4998935;28;20031;-71
2021/07/03 10:33:50;;;;;;;7.22;3.30;;;28.40;69.00;;;;;;4977149;28;20385;-73
2021/07/03 10:36:28;;;;;;;3.50;3.30;;;28.80;72.90;;;;;;4988880;28;20022;-72
2021/07/03 10:38:54;;;;;;;3.65;3.35;;;28.60;67.90;;;;;;4997342;28;20102;-71
2021/07/03 10:41:28;;;;;;;3.38;3.08;;;28.10;69.70;;;;;;4971031;28;20022;-72
2021/07/03 10:44:09;;;;;;;3.20;2.97;;;27.70;70.70;;;;;;4969726;28;20439;-74
2021/07/03 10:46:41;;;;;;;3.75;3.38;;;27.60;72.10;;;;;;4966476;28;20031;-72
2021/07/03 10:49:10;;;;;;;3.15;2.95;;;27.90;71.60;;;;;;4998529;28;20041;-72
2021/07/03 10:51:54;;;;;;;3.30;3.10;;;28.20;73.60;;;;;;4989543;28;20033;-70
2021/07/03 10:54:26;;;;;;;3.42;3.22;;;28.60;73.30;;;;;;5007979;28;20030;-73
2021/07/03 10:57:05;;;;;;;;;;;28.60;67.40;;;;;;5010273;28;20022;-79
2021/07/03 10:59:34;;;;;;;3.88;3.28;;;28.70;69.00;;;;;;5008420;28;19906;-71
2021/07/03 11:02:13;;;;;;;3.28;3.08;;;29.40;70.50;;;;;;5005517;28;20030;-72
2021/07/03 11:04:48;;;;;;;3.50;3.20;;;29.70;69.10;;;;;;4987761;28;20109;-73
2021/07/03 11:07:18;;;;;;;3.60;3.30;;;29.40;67.40;;;;;;4988198;28;20042;-71
2021/07/03 11:09:44;;;;;;;5.53;3.42;;;28.80;66.20;;;;;;4987341;28;20156;-72
2021/07/03 11:12:19;;;;;;;3.90;3.30;;;28.70;73.20;;;;;;4987729;28;20033;-71
2021/07/03 11:14:49;;;;;;;3.90;3.50;;;29.20;70.30;;;;;;4987957;28;20109;-72
2021/07/03 11:17:17;;;;;;;3.53;2.92;;;29.30;70.60;;;;;;4970964;28;20059;-70
2021/07/03 11:19:46;;;;;;;3.55;3.25;;;29.80;70.30;;;;;;4968702;28;20106;-71
2021/07/03 11:22:12;;;;;;;4.07;3.47;;;30.40;72.70;;;;;;4972738;28;20113;-72
2021/07/03 11:24:55;;;;;;;3.28;2.97;;;30.20;70.60;;;;;;4987903;28;20106;-72
2021/07/03 11:27:31;;;;;;;3.28;2.83;;;30.90;70.40;;;;;;4972237;28;20500;-72
2021/07/03 11:29:59;;;;;;;5.80;3.20;;;31.10;68.20;;;;;;4976462;28;20030;-72
2021/07/03 11:32:25;;;;;;;4.10;3.30;;;30.40;65.70;;;;;;4992146;28;20037;-72
2021/07/03 11:35:03;;;;;;;3.70;3.40;;;29.90;66.90;;;;;;4990491;28;20026;-71
2021/07/03 11:37:34;;;;;;;4.43;3.33;;;29.40;66.20;;;;;;4988472;28;20099;-72
2021/07/03 11:40:05;;;;;;;3.65;3.35;;;29.50;70.30;;;;;;5004854;28;20477;-71
2021/07/03 11:42:34;;;;;;;3.60;3.40;;;29.30;70.40;;;;;;4972018;28;20035;-73
2021/07/03 11:45:00;;;;;;;3.97;3.20;;;29.80;67.30;;;;;;4972298;28;20500;-74
2021/07/03 11:47:33;;;;;;;3.80;3.50;;;30.10;66.80;;;;;;5039299;28;20459;-71
2021/07/03 11:49:59;;;;;;;3.40;3.10;;;30.30;68.70;;;;;;4971537;28;20031;-70
2021/07/03 11:52:25;;;;;;;3.70;3.40;;;30.40;67.20;;;;;;4973062;28;20038;-71
2021/07/03 11:55:01;;;;;;;5.45;2.92;;;30.10;63.40;;;;;;4991631;28;20023;-74
2021/07/03 11:57:45;;;;;;;3.53;3.22;;;29.90;64.50;;;;;;4991050;28;20133;-74
2021/07/03 12:00:33;;;;;;;3.17;2.97;;;28.60;64.90;;;;;;4990884;28;20093;-71
2021/07/03 12:02:59;;;;;;;3.38;3.17;;;28.60;63.40;;;;;;4991250;28;20149;-72
2021/07/03 12:05:32;;;;;;;3.10;2.90;;;29.00;63.30;;;;;;4991560;28;20019;-74
2021/07/03 12:08:01;;;;;;;2.78;2.63;;;28.80;63.60;;;;;;4974232;28;20030;-75
2021/07/03 12:10:49;;;;;;;2.95;2.75;;;28.60;67.60;;;;;;4990789;28;20034;-72
2021/07/03 12:13:24;;;;;;;4.68;3.00;;;28.90;63.30;;;;;;4973664;28;20080;-73
2021/07/03 12:15:58;;;;;;;3.00;2.80;;;29.50;65.40;;;;;;4991230;28;20488;-72
2021/07/03 12:18:27;;;;;;;3.20;2.92;;;29.90;61.80;;;;;;4991402;28;20030;-72
2021/07/03 12:21:25;;;;;;;3.20;3.00;;;29.60;63.30;;;;;;4990698;28;20054;-72
2021/07/03 12:24:04;;;;;;;3.35;3.05;;;29.70;66.10;;;;;;4994868;28;20039;-73
2021/07/03 12:26:30;;;;;;;3.13;2.92;;;29.50;63.40;;;;;;4991340;28;20080;-72
2021/07/03 12:28:58;;;;;;;3.65;3.35;;;29.40;63.90;;;;;;4990875;28;20440;-72
2021/07/03 12:31:25;;;;;;;3.40;3.08;;;29.30;65.30;;;;;;4990526;28;20099;-71
2021/07/03 12:34:26;;;;;;;2.92;2.72;;;29.20;65.70;;;;;;4989916;28;20054;-73
2021/07/03 12:37:06;;;;;;;3.47;3.28;;;30.00;64.90;;;;;;4991025;28;20054;-73
2021/07/03 12:39:32;;;;;;;3.50;2.88;;;29.10;64.80;;;;;;4990224;28;20019;-72
2021/07/03 12:42:07;;;;;;;4.65;3.08;;;28.50;66.60;;;;;;4990752;28;20031;-72